Clipper Saga — LAFY6 — position and weather

sailwx.info

Track history (hours):
 
Tides and Currents Weather Stations Pressure Air Temp Water Temp Dewpoint Dewpoint Depression Visibility Wind Speed Wind Dir Waves Ship Positions

Clipper Saga

Last reported at 2017-Nov-23 08:40 UTC. Time now 2017-Nov-24 05:40 UTC.
Position N 54°40' W 001°08'.

Length 89 m; draft 5.9 m.

Type: Ship (hazmat cat C). MMSI: 246657008.

Date/timePositionNaut miles runAvg speedWind from/ knotsBaromVisibWave heightAir tempDewpointWater temp
2017-Nov-23 08:40N 54°40' W 001°08'210.4
2017-Nov-23 08:30N 54°41' W 001°06'2 4.9
2017-Nov-23 08:00N 54°43' W 001°08'3 5.8
2017-Nov-23 07:30N 54°45' W 001°11'0 0.6
2017-Nov-23 06:56N 54°46' W 001°12'0 0.1
2017-Nov-23 06:29N 54°46' W 001°12'0 0.0
2017-Nov-23 05:56N 54°46' W 001°12'0 0.1
2017-Nov-23 05:29N 54°46' W 001°12'0 0.0
2017-Nov-23 04:47N 54°46' W 001°12'0 0.0
2017-Nov-23 04:29N 54°46' W 001°12'0 0.1
2017-Nov-23 03:59N 54°46' W 001°12'0 0.1
2017-Nov-23 03:29N 54°46' W 001°12'0 0.0
2017-Nov-23 02:47N 54°46' W 001°12'0 0.2
2017-Nov-23 02:20N 54°46' W 001°12'0 0.1
2017-Nov-23 01:50N 54°46' W 001°12'0 0.1
2017-Nov-23 01:23N 54°46' W 001°12'0 0.1
2017-Nov-23 00:50N 54°46' W 001°12'0 0.1
2017-Nov-23 00:23N 54°46' W 001°12'0 0.4
2017-Nov-23 00:01N 54°46' W 001°12'510.6
2017-Nov-22 23:30N 54°43' W 001°04'611.6
2017-Nov-22 23:00N 54°41' W 000°55'3010.1
2017-Nov-22 20:06N 54°25' W 000°11'110.7
2017-Nov-22 20:00N 54°24' W 000°10'510.3
2017-Nov-22 19:30N 54°20' W 000°05'  
2017-Nov-19 10:52N 51°16' E 004°13'1 1.9
2017-Nov-19 10:30N 51°17' E 004°14'1 1.6
2017-Nov-19 10:00N 51°17' E 004°15'1 1.5
2017-Nov-19 09:30N 51°17' E 004°16'3 5.3
2017-Nov-19 09:00N 51°20' E 004°16'5 9.8
2017-Nov-19 08:30N 51°24' E 004°12'5 9.6
2017-Nov-19 08:00N 51°22' E 004°04'5 9.1
2017-Nov-19 07:30N 51°26' E 004°00'5 9.2
2017-Nov-19 07:00N 51°22' E 003°56'4 8.7
2017-Nov-19 06:30N 51°21' E 003°50'5 9.1
2017-Nov-19 06:00N 51°23' E 003°43'4 8.5
2017-Nov-19 05:30N 51°26' E 003°39'3 6.2
2017-Nov-19 05:00N 51°26' E 003°34'3 6.0
2017-Nov-19 04:30N 51°28' E 003°31'4 8.1
2017-Nov-19 04:00N 51°31' E 003°26'510.2
2017-Nov-19 03:30N 51°36' E 003°23'611.3
2017-Nov-19 03:00N 51°40' E 003°17'4 7.1
2017-Nov-19 02:31N 51°44' E 003°15'3 5.2
2017-Nov-19 02:00N 51°46' E 003°15'5 3.4
2017-Nov-19 00:36N 51°51' E 003°14'1 2.2
2017-Nov-19 00:14N 51°50' E 003°14'1 2.1
2017-Nov-18 23:59N 51°50' E 003°14'1 1.9
2017-Nov-18 23:22N 51°48' E 003°14'1 2.4
2017-Nov-18 22:53N 51°49' E 003°12'2 3.3
2017-Nov-18 22:20N 51°51' E 003°11'1 3.5
2017-Nov-18 21:59N 51°50' E 003°12'4 3.6
2017-Nov-18 20:57N 51°49' E 003°18'2 3.9
2017-Nov-18 20:29N 51°48' E 003°20'83 3.1
2017-Nov-17 17:45N 52°59' E 002°10'2 8.5
2017-Nov-17 17:30N 53°00' E 002°07'4 8.6
2017-Nov-17 17:00N 53°03' E 002°01'4 8.3
2017-Nov-17 16:30N 53°05' E 001°56'4 8.7
2017-Nov-17 16:00N 53°08' E 001°50'611.9
2017-Nov-17 15:30N 53°11' E 001°42'611.8
2017-Nov-17 15:00N 53°15' E 001°34'611.5
2017-Nov-17 14:30N 53°18' E 001°26'4411.2
2017-Nov-17 10:34N 53°33' E 000°16'112.3
2017-Nov-17 10:28N 53°33' E 000°14'512.0
2017-Nov-17 10:00N 53°34' E 000°05'510.9
2017-Nov-17 09:30N 53°36' W 000°03'510.3
2017-Nov-17 09:00N 53°38' W 000°11'0 0.0
2017-Nov-17 08:30N 53°38' W 000°11'0 0.0
2017-Nov-17 08:00N 53°38' W 000°11'0 0.0
2017-Nov-16 08:49N 53°38' W 000°11'0 0.0
2017-Nov-16 08:30N 53°38' W 000°11'1 2.6
2017-Nov-16 08:00N 53°38' W 000°09'3 6.6
2017-Nov-16 07:30N 53°37' W 000°04'4 7.2
2017-Nov-16 07:00N 53°35' E 000°02'4 7.9
2017-Nov-16 06:30N 53°34' E 000°08'33 9.0
2017-Nov-16 02:50N 53°21' E 000°59'4 9.5
2017-Nov-16 02:25N 53°18' E 001°03'4 9.6
2017-Nov-16 02:00N 53°15' E 001°07'5 9.5
2017-Nov-16 01:30N 53°11' E 001°13'5 9.4
2017-Nov-16 01:00N 53°08' E 001°17'5 9.5
2017-Nov-16 00:30N 53°04' E 001°23'5 9.6
2017-Nov-16 00:00N 53°01' E 001°28'510.0
2017-Nov-15 23:30N 52°57' E 001°34'510.4
2017-Nov-15 23:00N 52°53' E 001°40'510.3
2017-Nov-15 22:30N 52°50' E 001°47'611.1
2017-Nov-15 22:00N 52°47' E 001°55'7310.8
2017-Nov-15 15:11N 52°07' E 003°36'211.4
2017-Nov-15 15:00N 52°06' E 003°39'611.0
2017-Nov-15 14:30N 52°05' E 003°47'5 9.8
2017-Nov-15 14:00N 52°02' E 003°54'4 7.9
2017-Nov-15 13:30N 52°01' E 003°60'510.8
2017-Nov-15 13:00N 51°58' E 004°08'5 9.8
2017-Nov-15 12:30N 51°55' E 004°14'3 6.2
2017-Nov-15 12:00N 51°53' E 004°18'1 1.9
2017-Nov-15 11:28N 51°53' E 004°16'0 0.0
2017-Nov-15 11:00N 51°53' E 004°16'0 0.0
2017-Nov-14 11:36N 51°53' E 004°16'0 0.1
2017-Nov-14 11:30N 51°53' E 004°16'1 1.5
2017-Nov-14 11:00N 51°53' E 004°17'2 3.9
2017-Nov-14 10:30N 51°55' E 004°15'612.4
2017-Nov-14 10:00N 51°58' E 004°07'611.9
2017-Nov-14 09:30N 52°00' E 003°58'611.2
2017-Nov-14 09:00N 52°00' E 003°49'4 7.5
2017-Nov-14 08:30N 52°03' E 003°47'611.5
2017-Nov-14 08:00N 52°09' E 003°45'2 2.6
2017-Nov-14 07:21N 52°10' E 003°42'0 0.0
2017-Nov-14 06:27N 52°10' E 003°42'0 0.0
2017-Nov-14 05:57N 52°10' E 003°42'0 0.0
2017-Nov-14 05:24N 52°10' E 003°42'0 0.0
2017-Nov-14 04:57N 52°10' E 003°42'0 0.0
2017-Nov-14 04:27N 52°10' E 003°42'0 0.0
2017-Nov-14 03:45N 52°10' E 003°42'0 0.0
2017-Nov-14 03:30N 52°10' E 003°42'0 0.1
2017-Nov-14 03:00N 52°10' E 003°42'0 0.0
2017-Nov-14 02:30N 52°10' E 003°42'0 0.0
2017-Nov-14 01:57N 52°10' E 003°42'0 0.0
2017-Nov-14 01:30N 52°10' E 003°42'0 0.0
2017-Nov-14 01:00N 52°10' E 003°42'0 0.0
2017-Nov-14 00:30N 52°10' E 003°42'0 0.0
2017-Nov-14 00:00N 52°10' E 003°42'0 0.1
2017-Nov-13 23:30N 52°10' E 003°42'0 0.0
2017-Nov-13 22:57N 52°10' E 003°42'0 0.0
2017-Nov-13 22:27N 52°10' E 003°42'0 0.0
2017-Nov-13 22:00N 52°10' E 003°42'  
Track history (hours):
 
Tides and Currents Weather Stations Pressure Air Temp Water Temp Dewpoint Dewpoint Depression Visibility Wind Speed Wind Dir Waves Ship Positions

Clipper Saga

Last reported at 2017-Nov-23 08:40 UTC. Time now 2017-Nov-24 05:40 UTC.
Position N 54°40' W 001°08'.

Length 89 m; draft 5.9 m.

Type: Ship (hazmat cat C). MMSI: 246657008.

Date/timePositionNaut miles runAvg speedWind from/ knotsBaromVisibWave heightAir tempDewpointWater temp
2017-Nov-23 08:40N 54°40' W 001°08'210.4
2017-Nov-23 08:30N 54°41' W 001°06'2 4.9
2017-Nov-23 08:00N 54°43' W 001°08'3 5.8
2017-Nov-23 07:30N 54°45' W 001°11'0 0.6
2017-Nov-23 06:56N 54°46' W 001°12'0 0.1
2017-Nov-23 06:29N 54°46' W 001°12'0 0.0
2017-Nov-23 05:56N 54°46' W 001°12'0 0.1
2017-Nov-23 05:29N 54°46' W 001°12'0 0.0
2017-Nov-23 04:47N 54°46' W 001°12'0 0.0
2017-Nov-23 04:29N 54°46' W 001°12'0 0.1
2017-Nov-23 03:59N 54°46' W 001°12'0 0.1
2017-Nov-23 03:29N 54°46' W 001°12'0 0.0
2017-Nov-23 02:47N 54°46' W 001°12'0 0.2
2017-Nov-23 02:20N 54°46' W 001°12'0 0.1
2017-Nov-23 01:50N 54°46' W 001°12'0 0.1
2017-Nov-23 01:23N 54°46' W 001°12'0 0.1
2017-Nov-23 00:50N 54°46' W 001°12'0 0.1
2017-Nov-23 00:23N 54°46' W 001°12'0 0.4
2017-Nov-23 00:01N 54°46' W 001°12'510.6
2017-Nov-22 23:30N 54°43' W 001°04'611.6
2017-Nov-22 23:00N 54°41' W 000°55'3010.1
2017-Nov-22 20:06N 54°25' W 000°11'110.7
2017-Nov-22 20:00N 54°24' W 000°10'510.3
2017-Nov-22 19:30N 54°20' W 000°05'  
2017-Nov-19 10:52N 51°16' E 004°13'1 1.9
2017-Nov-19 10:30N 51°17' E 004°14'1 1.6
2017-Nov-19 10:00N 51°17' E 004°15'1 1.5
2017-Nov-19 09:30N 51°17' E 004°16'3 5.3
2017-Nov-19 09:00N 51°20' E 004°16'5 9.8
2017-Nov-19 08:30N 51°24' E 004°12'5 9.6
2017-Nov-19 08:00N 51°22' E 004°04'5 9.1
2017-Nov-19 07:30N 51°26' E 004°00'5 9.2
2017-Nov-19 07:00N 51°22' E 003°56'4 8.7
2017-Nov-19 06:30N 51°21' E 003°50'5 9.1
2017-Nov-19 06:00N 51°23' E 003°43'4 8.5
2017-Nov-19 05:30N 51°26' E 003°39'3 6.2
2017-Nov-19 05:00N 51°26' E 003°34'3 6.0
2017-Nov-19 04:30N 51°28' E 003°31'4 8.1
2017-Nov-19 04:00N 51°31' E 003°26'510.2
2017-Nov-19 03:30N 51°36' E 003°23'611.3
2017-Nov-19 03:00N 51°40' E 003°17'4 7.1
2017-Nov-19 02:31N 51°44' E 003°15'3 5.2
2017-Nov-19 02:00N 51°46' E 003°15'5 3.4
2017-Nov-19 00:36N 51°51' E 003°14'1 2.2
2017-Nov-19 00:14N 51°50' E 003°14'1 2.1
2017-Nov-18 23:59N 51°50' E 003°14'1 1.9
2017-Nov-18 23:22N 51°48' E 003°14'1 2.4
2017-Nov-18 22:53N 51°49' E 003°12'2 3.3
2017-Nov-18 22:20N 51°51' E 003°11'1 3.5
2017-Nov-18 21:59N 51°50' E 003°12'4 3.6
2017-Nov-18 20:57N 51°49' E 003°18'2 3.9
2017-Nov-18 20:29N 51°48' E 003°20'83 3.1
2017-Nov-17 17:45N 52°59' E 002°10'2 8.5
2017-Nov-17 17:30N 53°00' E 002°07'4 8.6
2017-Nov-17 17:00N 53°03' E 002°01'4 8.3
2017-Nov-17 16:30N 53°05' E 001°56'4 8.7
2017-Nov-17 16:00N 53°08' E 001°50'611.9
2017-Nov-17 15:30N 53°11' E 001°42'611.8
2017-Nov-17 15:00N 53°15' E 001°34'611.5
2017-Nov-17 14:30N 53°18' E 001°26'4411.2
2017-Nov-17 10:34N 53°33' E 000°16'112.3
2017-Nov-17 10:28N 53°33' E 000°14'512.0
2017-Nov-17 10:00N 53°34' E 000°05'510.9
2017-Nov-17 09:30N 53°36' W 000°03'510.3
2017-Nov-17 09:00N 53°38' W 000°11'0 0.0
2017-Nov-17 08:30N 53°38' W 000°11'0 0.0
2017-Nov-17 08:00N 53°38' W 000°11'0 0.0
2017-Nov-16 08:49N 53°38' W 000°11'0 0.0
2017-Nov-16 08:30N 53°38' W 000°11'1 2.6
2017-Nov-16 08:00N 53°38' W 000°09'3 6.6
2017-Nov-16 07:30N 53°37' W 000°04'4 7.2
2017-Nov-16 07:00N 53°35' E 000°02'4 7.9
2017-Nov-16 06:30N 53°34' E 000°08'33 9.0
2017-Nov-16 02:50N 53°21' E 000°59'4 9.5
2017-Nov-16 02:25N 53°18' E 001°03'4 9.6
2017-Nov-16 02:00N 53°15' E 001°07'5 9.5
2017-Nov-16 01:30N 53°11' E 001°13'5 9.4
2017-Nov-16 01:00N 53°08' E 001°17'5 9.5
2017-Nov-16 00:30N 53°04' E 001°23'5 9.6
2017-Nov-16 00:00N 53°01' E 001°28'510.0
2017-Nov-15 23:30N 52°57' E 001°34'510.4
2017-Nov-15 23:00N 52°53' E 001°40'510.3
2017-Nov-15 22:30N 52°50' E 001°47'611.1
2017-Nov-15 22:00N 52°47' E 001°55'7310.8
2017-Nov-15 15:11N 52°07' E 003°36'211.4
2017-Nov-15 15:00N 52°06' E 003°39'611.0
2017-Nov-15 14:30N 52°05' E 003°47'5 9.8
2017-Nov-15 14:00N 52°02' E 003°54'4 7.9
2017-Nov-15 13:30N 52°01' E 003°60'510.8
2017-Nov-15 13:00N 51°58' E 004°08'5 9.8
2017-Nov-15 12:30N 51°55' E 004°14'3 6.2
2017-Nov-15 12:00N 51°53' E 004°18'1 1.9
2017-Nov-15 11:28N 51°53' E 004°16'0 0.0
2017-Nov-15 11:00N 51°53' E 004°16'0 0.0
2017-Nov-14 11:36N 51°53' E 004°16'0 0.1
2017-Nov-14 11:30N 51°53' E 004°16'1 1.5
2017-Nov-14 11:00N 51°53' E 004°17'2 3.9
2017-Nov-14 10:30N 51°55' E 004°15'612.4
2017-Nov-14 10:00N 51°58' E 004°07'611.9
2017-Nov-14 09:30N 52°00' E 003°58'611.2
2017-Nov-14 09:00N 52°00' E 003°49'4 7.5
2017-Nov-14 08:30N 52°03' E 003°47'611.5
2017-Nov-14 08:00N 52°09' E 003°45'2 2.6
2017-Nov-14 07:21N 52°10' E 003°42'0 0.0
2017-Nov-14 06:27N 52°10' E 003°42'0 0.0
2017-Nov-14 05:57N 52°10' E 003°42'0 0.0
2017-Nov-14 05:24N 52°10' E 003°42'0 0.0
2017-Nov-14 04:57N 52°10' E 003°42'0 0.0
2017-Nov-14 04:27N 52°10' E 003°42'0 0.0
2017-Nov-14 03:45N 52°10' E 003°42'0 0.0
2017-Nov-14 03:30N 52°10' E 003°42'0 0.1
2017-Nov-14 03:00N 52°10' E 003°42'0 0.0
2017-Nov-14 02:30N 52°10' E 003°42'0 0.0
2017-Nov-14 01:57N 52°10' E 003°42'0 0.0
2017-Nov-14 01:30N 52°10' E 003°42'0 0.0
2017-Nov-14 01:00N 52°10' E 003°42'0 0.0
2017-Nov-14 00:30N 52°10' E 003°42'0 0.0
2017-Nov-14 00:00N 52°10' E 003°42'0 0.1
2017-Nov-13 23:30N 52°10' E 003°42'0 0.0
2017-Nov-13 22:57N 52°10' E 003°42'0 0.0
2017-Nov-13 22:27N 52°10' E 003°42'0 0.0
2017-Nov-13 22:00N 52°10' E 003°42'  

Dump ship's entire track history